Sachse, TX (75048)

1:52 AM CDT on August 04, 2015 (GMT -0500)
Heritage Park | | Change Station
CLOSE
Current Station
Personal Weather Station
Location: Sachse, TX
Elevation: 502 ft
Nearby Weather Stations
Active Advisory: Flood Warning

Elev 502 ft 32.96 °N, 96.57 °W | Updated 2 seconds ago

Clear
Clear
81.1 °F
Feels Like 84 °F
N
0.0
Wind Variable Wind from SW
Gusts 0.0 mph

Today
High -- | Low -- °F
--% Chance of Precip.
Yesterday
High -- | Low -- °F
Precip. -- in
6:41 AM 8:22 PM
Waning Gibbous, 80% visible
Pressure 29.90 in
Visibility 10.0 miles
Clouds Clear
Heat Index 84 °F
Dew Point 69 °F
Humidity 66%
Rainfall 0.00 in
Snow Depth Not available.
UV 0 out of 12
Pollen 4.10 out of 12
Air Quality Not available.
Flu Activity Not available.
METAR KF46 040635Z AUTO 16004KT 10SM CLR 28/18 A2990 RMK AO2 T02800180

More Conditions Fewer Conditions

Pressure 29.90 in
Visibility 10.0 miles
Clouds Clear
Heat Index 84 °F
Dew Point 69 °F
Humidity 66%
Rainfall 0.00 in
Snow Depth Not available.
UV 0 out of 12
Pollen 4.10 out of 12
Air Quality Not available.
Flu Activity Not available.
METAR KF46 040635Z AUTO 16004KT 10SM CLR 28/18 A2990 RMK AO2 T02800180

More Conditions Fewer Conditions

10-Day Weather Forecast

×

Almanac

Astronomy

Aug. 04, 2015 Rise Set
Actual Time
Civil Twilight
Nautical Twilight
Astronomical Twilight
Moon
Length of Visible Light
Length of Day
Tomorrow will be .
, % of the Moon is Illuminated

Today's Extremes

State Highs State Lows

Community

WunderPhotos

Upload Photos

1,843,877 photos uploaded!

WunderBlogs® & News

Nearby

Air Quality

  Air Quality AQ Index Pollutant
Not available.

Snow Depth

Station Depth Elevation

Earthquake Activity

City Distance Mag. Time & Date
Minimum magnitude displayed is 2.5.

Coastal Water Temperatures

Place Temperature

Stations

Nearby Weather Stations

Station Location Temp. Windchill Dew Point Humidity Wind Precip. Elev Updated Type
                   
Flood Warning
Statement as of 8:22 PM CDT on August 03, 2015

The Flood Warning continues for
the Elm Fork Trinity River near Carrollton.
* At 0715 PM Monday the stage was 8.09 feet.
* Flood stage is 8 feet.
* Minor flooding is occurring and minor flooding is forecast.
* Forecast... the river will remain just above flood stage into
the upcoming weekend.


Lat... Lon 3300 9700 3287 9699 3287 9687 3300 9688